createdAt,value
2023-05-21T00:00:17.882Z,99.90
2023-05-21T00:02:47.350Z,99.90
2023-05-21T00:05:17.150Z,99.90
2023-05-21T00:07:45.841Z,99.90
2023-05-21T00:10:14.113Z,99.90
2023-05-21T00:12:42.601Z,99.90
2023-05-21T00:15:11.309Z,99.90
2023-05-21T00:17:40.082Z,99.90
2023-05-21T00:20:10.265Z,99.90
2023-05-21T00:22:38.209Z,99.90
2023-05-21T00:25:07.010Z,99.90
2023-05-21T00:27:34.964Z,99.90
2023-05-21T00:30:02.936Z,99.90
2023-05-21T00:32:30.887Z,99.90
2023-05-21T00:34:59.205Z,99.90
2023-05-21T00:37:29.872Z,99.90
2023-05-21T00:39:58.460Z,99.90
2023-05-21T00:42:27.467Z,99.90
2023-05-21T00:44:55.452Z,99.90
2023-05-21T00:47:23.817Z,99.90
2023-05-21T00:49:53.408Z,99.90
2023-05-21T00:52:23.026Z,99.90
2023-05-21T00:54:52.927Z,99.90
2023-05-21T00:57:23.267Z,99.90
2023-05-21T00:59:53.469Z,99.90
2023-05-21T01:02:24.357Z,99.90
2023-05-21T01:04:55.114Z,99.90
2023-05-21T01:07:23.456Z,99.90
2023-05-21T01:09:54.230Z,99.90
2023-05-21T01:12:24.447Z,99.90
2023-05-21T01:14:53.242Z,99.90
2023-05-21T01:17:24.390Z,99.90
2023-05-21T01:19:54.731Z,99.90
2023-05-21T01:22:25.084Z,99.90
2023-05-21T01:24:55.645Z,99.90
2023-05-21T01:27:23.785Z,99.90
2023-05-21T01:29:51.852Z,99.90
2023-05-21T01:32:27.789Z,99.90
2023-05-21T01:35:01.869Z,99.90
2023-05-21T01:37:34.492Z,99.90
2023-05-21T01:40:10.047Z,99.90
2023-05-21T01:42:43.669Z,99.90
2023-05-21T01:45:12.810Z,99.90
2023-05-21T01:47:56.205Z,99.90
2023-05-21T01:50:25.718Z,99.90
2023-05-21T01:52:55.213Z,99.90
2023-05-21T01:55:25.451Z,99.90
2023-05-21T01:57:53.967Z,99.90
2023-05-21T02:00:22.690Z,99.90
2023-05-21T02:02:51.789Z,99.90
2023-05-21T02:05:19.810Z,99.90
2023-05-21T02:07:48.663Z,99.90
2023-05-21T02:10:16.920Z,99.90
2023-05-21T02:12:46.365Z,99.90
2023-05-21T02:15:18.129Z,99.90
2023-05-21T02:17:46.516Z,99.90
2023-05-21T02:20:14.865Z,99.90
2023-05-21T02:22:43.934Z,99.90
2023-05-21T02:25:13.265Z,99.90
2023-05-21T02:27:42.567Z,99.90
2023-05-21T02:30:13.586Z,99.90
2023-05-21T02:32:42.816Z,99.90
2023-05-21T02:35:12.686Z,99.90
2023-05-21T02:37:41.549Z,99.90
2023-05-21T02:40:10.858Z,99.90
2023-05-21T02:42:40.208Z,99.90
2023-05-21T02:45:09.821Z,99.90
2023-05-21T02:47:39.502Z,99.90
2023-05-21T02:50:09.237Z,99.90
2023-05-21T02:52:37.446Z,99.90
2023-05-21T02:55:06.128Z,99.90
2023-05-21T02:57:34.065Z,99.90
2023-05-21T03:00:03.333Z,99.90
2023-05-21T03:02:33.806Z,99.90
2023-05-21T03:05:03.375Z,99.90
2023-05-21T03:07:31.783Z,99.90
2023-05-21T03:09:59.809Z,99.90
2023-05-21T03:12:27.792Z,99.90
2023-05-21T03:14:56.458Z,99.90
2023-05-21T03:17:24.488Z,99.90
2023-05-21T03:19:52.721Z,99.90
2023-05-21T03:22:22.024Z,99.90
2023-05-21T03:24:50.006Z,99.90
2023-05-21T03:27:17.954Z,99.90
2023-05-21T03:29:46.021Z,99.90
2023-05-21T03:32:14.670Z,99.90
2023-05-21T03:34:42.828Z,99.90
2023-05-21T03:37:11.091Z,99.90
2023-05-21T03:39:40.485Z,99.90
2023-05-21T03:42:08.445Z,99.90
2023-05-21T03:44:36.467Z,99.90
2023-05-21T03:47:04.512Z,99.90
2023-05-21T03:49:35.806Z,99.90
2023-05-21T03:52:03.976Z,99.90
2023-05-21T03:54:32.067Z,99.90
2023-05-21T03:57:01.548Z,99.90
2023-05-21T03:59:29.569Z,99.90
2023-05-21T04:01:57.553Z,99.90
2023-05-21T04:04:25.640Z,99.90
2023-05-21T04:06:54.355Z,99.90
2023-05-21T04:09:22.588Z,99.90
2023-05-21T04:11:50.586Z,99.90
2023-05-21T04:14:19.920Z,99.90
2023-05-21T04:16:49.162Z,99.90
2023-05-21T04:19:17.247Z,99.90
2023-05-21T04:21:45.952Z,99.90
2023-05-21T04:24:13.931Z,99.90
2023-05-21T04:26:42.220Z,99.90
2023-05-21T04:29:10.321Z,99.90
2023-05-21T04:31:39.700Z,99.90
2023-05-21T04:34:07.997Z,99.90
2023-05-21T04:36:36.236Z,99.90
2023-05-21T04:39:05.613Z,99.90
2023-05-21T04:41:33.713Z,99.90
2023-05-21T04:44:01.723Z,99.90
2023-05-21T04:46:30.992Z,99.90
2023-05-21T04:49:03.046Z,99.90
2023-05-21T04:51:31.444Z,99.90
2023-05-21T04:53:59.677Z,99.90
2023-05-21T04:56:27.779Z,99.90
2023-05-21T04:58:55.985Z,99.90
2023-05-21T05:01:25.549Z,99.90
2023-05-21T05:03:53.694Z,99.90
2023-05-21T05:06:25.822Z,99.90
2023-05-21T05:08:54.106Z,99.90
2023-05-21T05:11:22.490Z,99.90
2023-05-21T05:13:50.555Z,99.90
2023-05-21T05:16:25.200Z,99.90
2023-05-21T05:18:53.685Z,99.90
2023-05-21T05:21:24.213Z,99.90
2023-05-21T05:23:52.209Z,99.90
2023-05-21T05:26:20.244Z,99.90
2023-05-21T05:28:48.280Z,99.90
2023-05-21T05:31:16.346Z,99.90
2023-05-21T05:33:44.331Z,99.90
2023-05-21T05:36:12.313Z,99.90
2023-05-21T05:38:41.696Z,99.90
2023-05-21T05:41:09.727Z,99.90
2023-05-21T05:43:37.648Z,99.90
2023-05-21T05:46:05.725Z,99.90
2023-05-21T05:48:33.758Z,99.90
2023-05-21T05:51:02.084Z,99.90
2023-05-21T05:53:30.112Z,99.90
2023-05-21T05:55:59.869Z,99.90
2023-05-21T05:58:28.012Z,99.90
2023-05-21T06:00:55.974Z,99.90
2023-05-21T06:03:24.014Z,99.90
2023-05-21T06:05:52.270Z,99.90
2023-05-21T06:08:20.741Z,99.90
2023-05-21T06:10:48.774Z,99.90
2023-05-21T06:13:18.194Z,99.90
2023-05-21T06:15:46.359Z,99.90
2023-05-21T06:18:14.337Z,99.90
2023-05-21T06:20:42.370Z,99.90
2023-05-21T06:23:10.376Z,99.90
2023-05-21T06:25:38.631Z,99.90
2023-05-21T06:28:09.360Z,99.90
2023-05-21T06:30:41.769Z,99.90
2023-05-21T06:33:10.013Z,99.90
2023-05-21T06:35:39.886Z,99.90
2023-05-21T06:38:07.980Z,99.90
2023-05-21T06:40:36.383Z,99.90
2023-05-21T06:43:05.237Z,99.80
2023-05-21T06:45:33.345Z,99.30
2023-05-21T06:48:02.770Z,99.90
2023-05-21T06:50:30.801Z,99.90
2023-05-21T06:52:58.725Z,99.70
2023-05-21T06:55:26.682Z,99.20
2023-05-21T06:57:54.654Z,99.10
2023-05-21T07:00:22.610Z,98.70
2023-05-21T07:02:50.754Z,98.60
2023-05-21T07:05:20.400Z,98.70
2023-05-21T07:07:49.316Z,98.30
2023-05-21T07:10:17.443Z,97.80
2023-05-21T07:12:45.442Z,98.10
2023-05-21T07:15:13.802Z,98.10
2023-05-21T07:17:41.796Z,98.30
2023-05-21T07:20:11.519Z,98.00
2023-05-21T07:22:41.288Z,97.40
2023-05-21T07:25:10.245Z,96.50
2023-05-21T07:27:41.153Z,95.80
2023-05-21T07:30:12.098Z,94.60
2023-05-21T07:32:40.225Z,93.50
2023-05-21T07:35:08.714Z,92.60
2023-05-21T07:37:36.693Z,91.20
2023-05-21T07:40:07.867Z,89.20
2023-05-21T07:42:35.824Z,88.70
2023-05-21T07:45:03.735Z,86.60
2023-05-21T07:47:31.861Z,86.00
2023-05-21T07:49:59.897Z,85.60
2023-05-21T07:52:27.846Z,84.50
2023-05-21T07:54:56.303Z,83.30
2023-05-21T07:57:25.619Z,82.10
2023-05-21T07:59:53.542Z,81.00
2023-05-21T08:02:21.847Z,77.20
2023-05-21T08:04:49.881Z,77.60
2023-05-21T08:07:19.955Z,74.00
2023-05-21T08:09:47.855Z,71.40
2023-05-21T08:12:16.183Z,71.50
2023-05-21T08:14:46.074Z,70.70
2023-05-21T08:17:13.980Z,73.00
2023-05-21T08:19:42.240Z,72.30
2023-05-21T08:22:10.264Z,74.00
2023-05-21T08:24:38.223Z,73.30
2023-05-21T08:27:07.734Z,74.50
2023-05-21T08:29:35.674Z,75.00
2023-05-21T08:32:05.566Z,75.70
2023-05-21T08:34:33.520Z,75.80
2023-05-21T08:37:01.430Z,75.70
2023-05-21T08:39:29.591Z,74.40
2023-05-21T08:42:10.656Z,74.30
2023-05-21T08:44:44.322Z,74.80
2023-05-21T08:47:17.688Z,74.50
2023-05-21T08:49:48.129Z,74.60
2023-05-21T08:52:16.565Z,74.50
2023-05-21T08:54:46.439Z,75.10
2023-05-21T08:57:16.123Z,74.80
2023-05-21T08:59:45.111Z,75.30
2023-05-21T09:02:15.421Z,74.00
2023-05-21T09:04:48.440Z,74.20
2023-05-21T09:07:17.041Z,73.40
2023-05-21T09:09:50.214Z,72.20
2023-05-21T09:12:18.506Z,72.10
2023-05-21T09:14:48.729Z,71.90
2023-05-21T09:17:20.344Z,70.20
2023-05-21T09:20:13.549Z,69.60
2023-05-21T09:22:43.398Z,67.50
2023-05-21T09:25:12.477Z,67.40
2023-05-21T09:27:41.145Z,67.30
2023-05-21T09:30:12.944Z,68.50
2023-05-21T09:32:43.080Z,68.70
2023-05-21T09:35:12.925Z,68.90
2023-05-21T09:37:43.792Z,68.20
2023-05-21T09:40:14.274Z,67.70
2023-05-21T09:42:42.888Z,68.40
2023-05-21T09:45:12.216Z,67.40
2023-05-21T09:47:44.704Z,68.50
2023-05-21T09:50:13.808Z,69.80
2023-05-21T09:52:42.348Z,70.30
2023-05-21T09:55:13.415Z,69.50
2023-05-21T09:57:45.481Z,70.20
2023-05-21T10:00:20.363Z,70.40
2023-05-21T10:02:51.643Z,70.70
2023-05-21T10:05:20.108Z,70.10
2023-05-21T10:07:51.839Z,71.30
2023-05-21T10:10:22.005Z,71.90
2023-05-21T10:12:55.364Z,72.70
2023-05-21T10:15:25.441Z,73.80
2023-05-21T10:17:57.464Z,73.50
2023-05-21T10:20:26.168Z,73.00
2023-05-21T10:22:56.946Z,73.20
2023-05-21T10:25:26.726Z,72.90
2023-05-21T10:27:56.497Z,72.70
2023-05-21T10:30:25.765Z,73.50
2023-05-21T10:32:57.951Z,75.80
2023-05-21T10:35:27.388Z,76.50
2023-05-21T10:37:58.161Z,75.60
2023-05-21T10:40:26.106Z,75.60
2023-05-21T10:43:14.520Z,75.20
2023-05-21T10:45:59.867Z,73.70
2023-05-21T10:48:48.589Z,74.90
2023-05-21T10:51:23.252Z,74.50
2023-05-21T10:54:14.118Z,70.20
2023-05-21T10:56:47.187Z,71.60
2023-05-21T10:59:28.299Z,70.90
2023-05-21T11:01:57.201Z,72.10
2023-05-21T11:04:28.257Z,71.30
2023-05-21T11:06:57.748Z,69.20
2023-05-21T11:09:25.892Z,69.40
2023-05-21T11:11:54.923Z,68.60
2023-05-21T11:14:56.864Z,68.20
2023-05-21T11:17:39.098Z,68.60
2023-05-21T11:20:13.491Z,69.00
2023-05-21T11:22:41.511Z,68.50
2023-05-21T11:25:09.970Z,63.20
2023-05-21T11:27:38.882Z,61.80
2023-05-21T11:30:08.755Z,59.90
2023-05-21T11:32:40.721Z,59.80
2023-05-21T11:35:14.920Z,60.10
2023-05-21T11:37:50.862Z,60.60
2023-05-21T11:40:27.384Z,59.90
2023-05-21T11:42:56.678Z,59.00
2023-05-21T11:45:30.785Z,58.80
2023-05-21T11:48:00.406Z,58.20
2023-05-21T11:50:34.244Z,58.00
2023-05-21T11:53:03.696Z,58.50
2023-05-21T11:55:33.153Z,57.90
2023-05-21T11:58:01.909Z,57.10
2023-05-21T12:00:29.827Z,58.40
2023-05-21T12:02:58.903Z,57.70
2023-05-21T12:05:27.589Z,58.00
2023-05-21T12:07:58.476Z,58.70
2023-05-21T12:10:26.431Z,59.40
2023-05-21T12:12:57.226Z,59.20
2023-05-21T12:15:27.058Z,57.10
2023-05-21T12:17:56.984Z,59.50
2023-05-21T12:20:28.304Z,61.20
2023-05-21T12:22:58.955Z,61.80
2023-05-21T12:25:27.618Z,62.20
2023-05-21T12:27:58.085Z,61.90
2023-05-21T12:30:27.887Z,62.50
2023-05-21T12:33:00.613Z,60.90
2023-05-21T12:35:28.740Z,61.00
2023-05-21T12:37:58.239Z,61.30
2023-05-21T12:40:37.286Z,62.00
2023-05-21T12:43:05.804Z,59.30
2023-05-21T12:45:34.802Z,58.30
2023-05-21T12:48:06.133Z,58.50
2023-05-21T12:50:35.896Z,57.50
2023-05-21T12:53:05.813Z,58.40
2023-05-21T12:55:33.939Z,59.60
2023-05-21T12:58:05.361Z,59.80
2023-05-21T13:00:34.272Z,60.30
2023-05-21T13:03:04.661Z,61.20
2023-05-21T13:05:32.987Z,58.40
2023-05-21T13:08:01.092Z,58.40
2023-05-21T13:10:30.643Z,58.90
2023-05-21T13:12:58.681Z,59.30
2023-05-21T13:15:26.730Z,59.60
2023-05-21T13:17:56.833Z,59.90
2023-05-21T13:20:27.623Z,60.40
2023-05-21T13:22:55.893Z,60.90
2023-05-21T13:25:28.472Z,60.70
2023-05-21T13:27:58.999Z,59.40
2023-05-21T13:30:27.120Z,59.70
2023-05-21T13:32:55.647Z,60.30
2023-05-21T13:35:23.854Z,59.90
2023-05-21T13:37:52.161Z,59.70
2023-05-21T13:40:23.851Z,59.50
2023-05-21T13:42:52.356Z,59.40
2023-05-21T13:45:24.331Z,59.70
2023-05-21T13:47:52.479Z,58.20
2023-05-21T13:50:20.585Z,58.30
2023-05-21T13:52:48.593Z,56.90
2023-05-21T13:55:16.875Z,54.20
2023-05-21T13:57:45.789Z,55.60
2023-05-21T14:00:15.991Z,56.00
2023-05-21T14:02:45.899Z,55.40
2023-05-21T14:05:14.610Z,54.00
2023-05-21T14:07:43.061Z,53.90
2023-05-21T14:10:11.798Z,55.30
2023-05-21T14:12:40.720Z,54.90
2023-05-21T14:15:09.624Z,55.30
2023-05-21T14:17:40.209Z,55.60
2023-05-21T14:20:11.126Z,54.30
2023-05-21T14:22:39.810Z,54.40
2023-05-21T14:25:09.823Z,54.10
2023-05-21T14:27:38.826Z,54.90
2023-05-21T14:30:08.019Z,54.20
2023-05-21T14:32:36.324Z,53.30
2023-05-21T14:35:05.516Z,54.90
2023-05-21T14:37:34.855Z,55.50
2023-05-21T14:40:03.414Z,55.50
2023-05-21T14:42:32.106Z,56.50
2023-05-21T14:45:07.420Z,56.60
2023-05-21T14:47:46.038Z,55.20
2023-05-21T14:50:14.121Z,54.50
2023-05-21T14:52:43.708Z,54.90
2023-05-21T14:55:13.820Z,55.20
2023-05-21T14:57:41.818Z,56.10
2023-05-21T15:00:11.611Z,54.40
2023-05-21T15:02:40.547Z,54.00
2023-05-21T15:05:09.139Z,51.70
2023-05-21T15:07:37.130Z,50.60
2023-05-21T15:10:07.841Z,50.90
2023-05-21T15:12:35.903Z,51.50
2023-05-21T15:15:04.124Z,51.80
2023-05-21T15:17:33.157Z,52.70
2023-05-21T15:20:04.565Z,52.90
2023-05-21T15:22:32.646Z,53.30
2023-05-21T15:25:01.433Z,53.20
2023-05-21T15:27:30.980Z,54.00
2023-05-21T15:29:59.053Z,54.60
2023-05-21T15:32:27.372Z,54.40
2023-05-21T15:34:55.617Z,51.00
2023-05-21T15:37:24.123Z,51.00
2023-05-21T15:39:53.429Z,50.70
2023-05-21T15:42:21.549Z,52.20
2023-05-21T15:44:51.669Z,52.70
2023-05-21T15:47:19.833Z,52.40
2023-05-21T15:49:47.903Z,53.40
2023-05-21T15:52:15.913Z,54.40
2023-05-21T15:54:43.841Z,54.50
2023-05-21T15:57:11.897Z,55.30
2023-05-21T15:59:39.873Z,55.80
2023-05-21T16:02:09.374Z,56.70
2023-05-21T16:04:37.770Z,55.60
2023-05-21T16:07:06.302Z,56.30
2023-05-21T16:09:35.437Z,56.70
2023-05-21T16:12:03.503Z,57.20
2023-05-21T16:14:31.599Z,57.60
2023-05-21T16:16:59.699Z,57.30
2023-05-21T16:19:29.234Z,58.00
2023-05-21T16:21:57.345Z,57.70
2023-05-21T16:24:25.438Z,57.50
2023-05-21T16:26:53.454Z,57.80
2023-05-21T16:29:22.055Z,57.50
2023-05-21T16:31:50.649Z,56.90
2023-05-21T16:34:18.721Z,54.70
2023-05-21T16:36:48.046Z,52.50
2023-05-21T16:39:16.448Z,53.00
2023-05-21T16:41:44.910Z,53.50
2023-05-21T16:44:12.857Z,53.70
2023-05-21T16:46:41.033Z,53.90
2023-05-21T16:49:09.084Z,54.30
2023-05-21T16:51:42.569Z,54.70
2023-05-21T16:54:12.077Z,54.90
2023-05-21T16:56:40.091Z,55.30
2023-05-21T16:59:08.058Z,56.00
2023-05-21T17:01:36.137Z,56.40
2023-05-21T17:04:04.386Z,57.10
2023-05-21T17:06:33.868Z,57.30
2023-05-21T17:09:02.435Z,57.70
2023-05-21T17:11:35.063Z,58.10
2023-05-21T17:14:03.000Z,59.00
2023-05-21T17:16:31.313Z,58.40
2023-05-21T17:18:59.475Z,58.80
2023-05-21T17:21:27.847Z,58.90
2023-05-21T17:23:56.357Z,59.40
2023-05-21T17:26:24.450Z,59.50
2023-05-21T17:28:54.155Z,59.50
2023-05-21T17:31:22.989Z,59.90
2023-05-21T17:33:50.942Z,60.00
2023-05-21T17:36:18.944Z,60.20
2023-05-21T17:38:46.884Z,60.50
2023-05-21T17:41:16.460Z,61.00
2023-05-21T17:43:44.428Z,61.40
2023-05-21T17:46:18.347Z,61.80
2023-05-21T17:48:58.969Z,62.00
2023-05-21T17:51:34.085Z,62.40
2023-05-21T17:54:26.334Z,63.00
2023-05-21T17:57:02.997Z,63.00
2023-05-21T17:59:35.074Z,63.20
2023-05-21T18:02:07.784Z,63.30
2023-05-21T18:04:43.244Z,63.60
2023-05-21T18:07:20.932Z,63.70
2023-05-21T18:10:25.588Z,63.90
2023-05-21T18:16:12.067Z,64.50
2023-05-21T18:19:18.525Z,64.90
2023-05-21T18:21:53.526Z,65.20
2023-05-21T18:24:38.536Z,65.30
2023-05-21T18:27:23.470Z,65.50
2023-05-21T18:30:28.134Z,65.70
2023-05-21T18:33:11.790Z,66.10
2023-05-21T18:38:56.070Z,66.80
2023-05-21T18:41:51.597Z,67.30
2023-05-21T18:47:35.339Z,67.50
2023-05-21T18:50:03.615Z,68.10
2023-05-21T18:52:33.582Z,68.20
2023-05-21T18:55:02.082Z,68.70
2023-05-21T18:57:31.368Z,69.90
2023-05-21T19:00:00.332Z,69.50
2023-05-21T19:02:29.864Z,70.10
2023-05-21T19:04:58.599Z,70.30
2023-05-21T19:07:32.949Z,70.60
2023-05-21T19:10:03.352Z,70.90
2023-05-21T19:12:32.821Z,71.10
2023-05-21T19:15:01.778Z,71.30
2023-05-21T19:17:35.097Z,71.80
2023-05-21T19:20:05.369Z,72.00
2023-05-21T19:22:33.827Z,72.40
2023-05-21T19:25:04.008Z,72.60
2023-05-21T19:27:32.178Z,72.90
2023-05-21T19:30:00.366Z,73.30
2023-05-21T19:32:28.651Z,73.60
2023-05-21T19:34:57.770Z,73.80
2023-05-21T19:37:28.993Z,74.00
2023-05-21T19:39:57.808Z,74.30
2023-05-21T19:42:38.296Z,74.80
2023-05-21T19:45:13.362Z,75.10
2023-05-21T19:47:41.869Z,75.80
2023-05-21T19:50:11.435Z,76.30
2023-05-21T19:52:40.864Z,77.00
2023-05-21T19:55:10.331Z,77.90
2023-05-21T19:57:40.060Z,78.40
2023-05-21T20:00:10.364Z,78.90
2023-05-21T20:02:38.537Z,79.30
2023-05-21T20:05:07.515Z,79.70
2023-05-21T20:07:35.949Z,80.10
2023-05-21T20:10:04.101Z,80.50
2023-05-21T20:12:32.250Z,80.90
2023-05-21T20:15:01.924Z,80.90
2023-05-21T20:17:43.533Z,81.20
2023-05-21T20:20:13.019Z,81.50
2023-05-21T20:22:41.060Z,81.70
2023-05-21T20:25:10.698Z,82.10
2023-05-21T20:27:39.800Z,82.40
2023-05-21T20:30:10.620Z,82.80
2023-05-21T20:32:38.737Z,83.10
2023-05-21T20:35:10.193Z,83.40
2023-05-21T20:37:38.600Z,84.00
2023-05-21T20:40:07.819Z,84.20
2023-05-21T20:42:36.544Z,84.60
2023-05-21T20:45:05.492Z,84.60
2023-05-21T20:47:35.011Z,85.00
2023-05-21T20:50:04.015Z,85.20
2023-05-21T20:52:32.367Z,85.50
2023-05-21T20:55:00.579Z,86.00
2023-05-21T20:57:29.748Z,86.20
2023-05-21T20:59:57.838Z,86.70
2023-05-21T21:02:26.973Z,86.90
2023-05-21T21:04:58.038Z,87.20
2023-05-21T21:07:26.125Z,87.50
2023-05-21T21:09:54.190Z,88.00
2023-05-21T21:12:26.583Z,88.40
2023-05-21T21:14:55.472Z,88.70
2023-05-21T21:17:32.180Z,89.20
2023-05-21T21:20:01.640Z,89.70
2023-05-21T21:22:30.006Z,90.00
2023-05-21T21:24:58.189Z,90.10
2023-05-21T21:27:26.512Z,90.20
2023-05-21T21:29:54.668Z,90.30
2023-05-21T21:32:22.935Z,90.60
2023-05-21T21:34:51.096Z,90.80
2023-05-21T21:37:20.730Z,90.90
2023-05-21T21:39:48.934Z,91.00
2023-05-21T21:42:17.146Z,91.20
2023-05-21T21:44:45.261Z,91.30
2023-05-21T21:47:13.399Z,91.50
2023-05-21T21:49:41.587Z,91.70
2023-05-21T21:52:10.877Z,91.80
2023-05-21T21:54:40.659Z,92.00
2023-05-21T21:57:08.752Z,92.20
2023-05-21T21:59:40.459Z,92.40
2023-05-21T22:02:08.594Z,92.50
2023-05-21T22:04:36.749Z,92.60
2023-05-21T22:07:04.842Z,92.80
2023-05-21T22:09:33.084Z,92.90
2023-05-21T22:12:07.677Z,93.00
2023-05-21T22:14:35.903Z,93.20
2023-05-21T22:17:04.143Z,93.30
2023-05-21T22:19:32.925Z,93.50
2023-05-21T22:22:02.116Z,93.80
2023-05-21T22:24:32.902Z,93.80
2023-05-21T22:27:02.869Z,94.00
2023-05-21T22:29:31.135Z,94.10
2023-05-21T22:31:59.184Z,94.30
2023-05-21T22:34:27.165Z,94.40
2023-05-21T22:36:55.282Z,94.50
2023-05-21T22:39:23.300Z,94.70
2023-05-21T22:41:51.515Z,94.80
2023-05-21T22:44:20.927Z,95.00
2023-05-21T22:46:49.503Z,95.10
2023-05-21T22:49:17.580Z,95.20
2023-05-21T22:51:46.408Z,95.30
2023-05-21T22:54:14.575Z,95.60
2023-05-21T22:56:43.307Z,95.80
2023-05-21T22:59:11.449Z,96.20
2023-05-21T23:01:41.058Z,96.40
2023-05-21T23:04:16.361Z,96.80
2023-05-21T23:06:44.593Z,96.90
2023-05-21T23:09:13.053Z,97.20
2023-05-21T23:11:41.324Z,97.40
2023-05-21T23:14:09.346Z,97.60
2023-05-21T23:16:37.359Z,97.70
2023-05-21T23:19:06.837Z,97.60
2023-05-21T23:21:35.008Z,97.80
2023-05-21T23:24:03.308Z,97.90
2023-05-21T23:26:31.343Z,98.10
2023-05-21T23:29:03.215Z,98.30
2023-05-21T23:31:31.603Z,98.30
2023-05-21T23:34:00.252Z,98.50
2023-05-21T23:36:29.718Z,98.70
2023-05-21T23:38:57.786Z,98.80
2023-05-21T23:41:27.687Z,98.90
2023-05-21T23:43:55.831Z,99.10
2023-05-21T23:46:23.857Z,99.30
2023-05-21T23:48:51.928Z,99.40
2023-05-21T23:51:19.995Z,99.50
2023-05-21T23:53:49.432Z,99.60
2023-05-21T23:56:17.506Z,99.80
2023-05-21T23:58:45.535Z,99.80
